Terminal Aerodrome Forecast
Issued by NWS

Home | Current Version | Previous Version | Graphics & Text | Print | Product List | Glossary Off
Versions: 1 2 3 4 5 6 7 8 9 10 11 12 13 14 15 16 17 18

000
FTUS41 KCLE 201700
TAFFDY
TAF
KFDY 201738Z 2018/2118 23015G25KT P6SM SCT035 BKN250
     FM210100 22010KT P6SM VCTS BKN035CB
      TEMPO 2102/2105 VRB15G25KT 3SM TSRA BR OVC035CB
     FM210500 22010KT P6SM OVC040
     FM210800 24010KT P6SM VCSH SCT015 OVC030
      TEMPO 2109/2113 5SM -SHRA BR SCT009 OVC015
     FM211600 27015KT P6SM BKN040=

USA.gov is the U.S. government's official web portal to all federal, state and local government web resources and services.